Time;durP1;ratioP1;P1;durP2;ratioP2;P2;SDS_P1;SDS_P2;PMS_P1;PMS_P2;Temp;Humidity;BMP_temperature;BMP_pressure;BME280_temperature;BME280_humidity;BME280_pressure;Samples;Min_cycle;Max_cycle;Signal;HPM_P1;HPM_P2
2023/03/06 00:02:36;;;;;;;58.57;29.70;;;-2.60;99.90;;;;;;10347751;28;20302;-79
2023/03/06 00:07:38;;;;;;;47.30;24.13;;;-2.30;99.90;;;;;;10347479;28;20705;-79
2023/03/06 00:12:41;;;;;;;39.40;22.37;;;-1.70;99.90;;;;;;10346961;28;20677;-80
2023/03/06 00:17:44;;;;;;;45.10;21.87;;;-1.60;99.90;;;;;;10345496;28;20227;-80
2023/03/06 00:22:47;;;;;;;44.93;23.30;;;-1.30;99.90;;;;;;10363822;28;20763;-79
2023/03/06 00:27:50;;;;;;;47.20;24.33;;;-0.50;99.90;;;;;;10364199;28;20303;-79
2023/03/06 00:32:53;;;;;;;45.47;23.27;;;-0.80;99.90;;;;;;10365302;28;20317;-79
2023/03/06 00:37:58;;;;;;;37.93;21.00;;;-1.60;99.90;;;;;;10365418;28;20283;-79
2023/03/06 00:43:01;;;;;;;39.30;22.27;;;-1.80;99.90;;;;;;10347455;28;20287;-79
2023/03/06 00:48:04;;;;;;;42.00;22.17;;;-2.20;99.90;;;;;;10347499;28;20234;-79
2023/03/06 00:53:06;;;;;;;37.00;20.67;;;-2.50;99.90;;;;;;10346987;28;20261;-79
2023/03/06 00:58:09;;;;;;;47.07;24.87;;;-2.70;99.90;;;;;;10364594;28;20245;-79
2023/03/06 01:03:12;;;;;;;52.33;27.60;;;-2.90;99.90;;;;;;10364978;28;20326;-79
2023/03/06 01:08:15;;;;;;;43.97;22.90;;;-2.80;99.90;;;;;;10364213;28;20308;-79
2023/03/06 01:13:18;;;;;;;46.47;23.67;;;-2.80;99.90;;;;;;10345770;28;20342;-79
2023/03/06 01:18:21;;;;;;;40.13;23.37;;;-2.80;99.90;;;;;;10366508;28;20297;-79
2023/03/06 01:23:23;;;;;;;39.63;22.07;;;-2.70;99.90;;;;;;10372279;28;20246;-79
2023/03/06 01:28:27;;;;;;;44.50;23.60;;;-2.60;99.90;;;;;;10371722;28;20728;-79
2023/03/06 01:33:30;;;;;;;49.17;23.93;;;-2.40;99.90;;;;;;10371149;28;20265;-79
2023/03/06 01:38:33;;;;;;;43.50;20.83;;;-2.40;99.90;;;;;;10354320;28;20688;-80
2023/03/06 01:43:41;;;;;;;46.53;24.33;;;-2.30;99.90;;;;;;10353434;28;20243;-79
2023/03/06 01:48:44;;;;;;;43.67;22.50;;;-2.30;99.90;;;;;;10353161;28;20246;-79
2023/03/06 01:53:49;;;;;;;32.37;18.63;;;-2.30;99.90;;;;;;10352961;28;20716;-79
2023/03/06 01:58:52;;;;;;;41.43;22.43;;;-2.20;99.90;;;;;;10352679;28;20297;-79
2023/03/06 02:03:55;;;;;;;41.40;23.77;;;-2.20;99.90;;;;;;10353090;28;20279;-80
2023/03/06 02:08:58;;;;;;;39.97;20.97;;;-2.30;99.90;;;;;;10352106;28;20264;-79
2023/03/06 02:14:01;;;;;;;33.37;21.13;;;-2.30;99.90;;;;;;10351880;28;20264;-79
2023/03/06 02:19:06;;;;;;;38.90;21.57;;;-2.20;99.90;;;;;;10350592;28;20201;-80
2023/03/06 02:24:19;;;;;;;35.73;20.50;;;-2.10;99.90;;;;;;10360117;28;20230;-79
2023/03/06 02:29:27;;;;;;;35.20;19.77;;;-2.00;99.90;;;;;;10328096;28;20738;-80
2023/03/06 02:34:36;;;;;;;30.30;17.73;;;-1.90;99.90;;;;;;10348587;28;20705;-80
2023/03/06 02:39:47;;;;;;;32.87;17.40;;;-1.90;99.90;;;;;;10345353;28;20254;-81
2023/03/06 02:44:52;;;;;;;34.80;17.67;;;-1.80;99.90;;;;;;10324593;28;20238;-80
2023/03/06 02:49:55;;;;;;;24.23;13.87;;;-1.80;99.90;;;;;;10366211;28;20301;-80
2023/03/06 02:54:58;;;;;;;29.97;14.97;;;-1.70;99.90;;;;;;10348166;28;20722;-80
2023/03/06 03:00:00;;;;;;;28.33;16.17;;;-1.70;99.90;;;;;;10365874;28;20240;-80
2023/03/06 03:05:04;;;;;;;28.00;16.50;;;-1.60;99.90;;;;;;10347137;28;20237;-80
2023/03/06 03:10:08;;;;;;;30.83;15.57;;;-1.40;99.90;;;;;;10343838;28;20773;-79
2023/03/06 03:15:11;;;;;;;38.10;17.30;;;-1.30;99.90;;;;;;10336028;28;20269;-80
2023/03/06 03:20:17;;;;;;;29.27;14.93;;;-1.30;99.90;;;;;;10347220;28;20232;-80
2023/03/06 03:25:21;;;;;;;30.77;16.23;;;-1.20;99.90;;;;;;10358323;28;20285;-80
2023/03/06 03:30:24;;;;;;;32.67;18.03;;;-1.20;99.90;;;;;;10357568;28;20737;-79
2023/03/06 03:35:27;;;;;;;34.63;18.67;;;-0.90;99.90;;;;;;10347164;28;20273;-80
2023/03/06 03:40:31;;;;;;;39.70;20.30;;;-0.60;99.90;;;;;;10365586;28;20238;-80
2023/03/06 03:45:34;;;;;;;38.93;20.47;;;-0.40;99.90;;;;;;10347171;28;20246;-80
2023/03/06 03:50:37;;;;;;;33.17;18.10;;;-0.60;99.90;;;;;;10347842;28;20293;-79
2023/03/06 03:55:40;;;;;;;28.77;15.70;;;-0.20;99.90;;;;;;10347003;28;20257;-79
2023/03/06 04:00:43;;;;;;;29.53;15.30;;;-0.30;99.90;;;;;;10365636;28;20998;-79
2023/03/06 04:05:48;;;;;;;25.17;14.03;;;-0.30;99.90;;;;;;10347742;28;20685;-79
2023/03/06 04:10:52;;;;;;;26.83;15.87;;;-0.10;99.90;;;;;;10346580;28;20302;-79
2023/03/06 04:15:58;;;;;;;30.37;17.10;;;0.00;99.90;;;;;;10335084;28;20257;-79
2023/03/06 04:21:03;;;;;;;32.00;17.60;;;0.20;99.90;;;;;;10365032;28;20291;-79
2023/03/06 04:26:06;;;;;;;32.80;17.97;;;0.30;99.90;;;;;;10348616;28;20243;-79
2023/03/06 04:31:11;;;;;;;29.97;18.00;;;0.40;99.90;;;;;;10365045;28;20719;-79
2023/03/06 04:36:29;;;;;;;29.07;16.93;;;0.40;99.90;;;;;;10347688;28;20268;-79
2023/03/06 04:41:36;;;;;;;28.33;16.43;;;0.70;99.90;;;;;;10347775;28;20236;-79
2023/03/06 04:46:39;;;;;;;32.17;18.23;;;0.90;99.90;;;;;;10364598;28;20250;-79
2023/03/06 04:51:41;;;;;;;30.60;18.10;;;1.00;99.90;;;;;;10364752;28;20250;-80
2023/03/06 04:56:44;;;;;;;25.70;15.17;;;1.10;99.90;;;;;;10354991;28;20673;-79
2023/03/06 05:01:46;;;;;;;31.20;18.77;;;1.40;99.90;;;;;;10354174;28;20250;-80
2023/03/06 05:06:50;;;;;;;28.87;17.87;;;1.40;99.90;;;;;;10370649;28;20323;-80
2023/03/06 05:11:53;;;;;;;35.67;20.63;;;1.30;99.90;;;;;;10353495;28;20248;-79
2023/03/06 05:16:56;;;;;;;49.73;26.10;;;1.30;99.90;;;;;;10372028;28;20278;-80
2023/03/06 05:21:58;;;;;;;50.57;26.63;;;1.40;99.90;;;;;;10371377;28;20235;-79
2023/03/06 05:27:01;;;;;;;29.43;14.47;;;1.20;99.90;;;;;;10370120;28;20756;-79
2023/03/06 05:32:04;;;;;;;23.37;13.57;;;2.50;99.90;;;;;;10360808;28;20241;-79
2023/03/06 05:37:07;;;;;;;25.40;14.07;;;2.00;99.90;;;;;;10370668;28;20308;-79
2023/03/06 05:42:10;;;;;;;21.17;12.33;;;1.50;99.90;;;;;;10371151;28;20299;-80
2023/03/06 05:47:13;;;;;;;17.97;11.27;;;1.40;99.90;;;;;;10370024;28;20253;-80
2023/03/06 05:52:16;;;;;;;18.93;11.53;;;1.50;99.90;;;;;;10352609;28;20270;-80
2023/03/06 05:57:20;;;;;;;24.97;13.53;;;1.00;99.90;;;;;;10352633;28;20274;-80
2023/03/06 06:02:23;;;;;;;14.53;10.60;;;0.80;99.90;;;;;;10369189;28;20237;-80
2023/03/06 06:07:25;;;;;;;14.00;8.77;;;0.80;99.90;;;;;;10369168;28;20237;-79
2023/03/06 06:12:28;;;;;;;29.50;15.07;;;0.80;99.90;;;;;;10353251;28;20713;-82
2023/03/06 06:17:30;;;;;;;40.07;21.57;;;3.30;99.90;;;;;;10352778;28;20825;-81
2023/03/06 06:22:36;;;;;;;57.43;27.60;;;4.30;99.90;;;;;;10352770;28;20705;-82
2023/03/06 06:27:39;;;;;;;30.17;16.17;;;2.90;99.90;;;;;;10369295;28;20319;-82
2023/03/06 06:32:41;;;;;;;36.03;16.20;;;2.00;99.90;;;;;;10351596;28;20686;-82
2023/03/06 06:37:44;;;;;;;33.33;18.30;;;1.60;99.90;;;;;;10370085;28;20732;-82
2023/03/06 06:42:46;;;;;;;27.27;15.20;;;1.20;99.90;;;;;;10368923;28;20236;-82
2023/03/06 06:47:49;;;;;;;32.50;18.93;;;1.10;99.90;;;;;;10352138;28;20208;-82
2023/03/06 06:52:52;;;;;;;32.30;19.63;;;1.10;99.90;;;;;;10350283;28;20213;-82
2023/03/06 06:57:54;;;;;;;20.17;11.00;;;1.10;99.90;;;;;;10354107;28;20290;-82
2023/03/06 07:02:57;;;;;;;14.87;9.27;;;1.00;99.90;;;;;;10350270;28;20244;-82
2023/03/06 07:07:59;;;;;;;15.10;8.97;;;0.90;99.90;;;;;;10368969;28;20255;-82
2023/03/06 07:13:02;;;;;;;11.07;7.80;;;0.90;99.90;;;;;;10366441;28;20287;-82
2023/03/06 07:18:04;;;;;;;13.77;7.73;;;0.90;99.90;;;;;;10365271;28;20322;-82
2023/03/06 07:23:11;;;;;;;11.90;7.27;;;1.00;99.90;;;;;;10364488;28;20251;-82
2023/03/06 07:28:13;;;;;;;16.27;7.73;;;0.90;99.90;;;;;;10365159;28;20255;-82
2023/03/06 07:33:17;;;;;;;11.20;7.33;;;1.10;99.90;;;;;;10361115;28;20302;-82
2023/03/06 07:38:20;;;;;;;15.60;8.43;;;1.10;99.90;;;;;;10364839;28;20752;-82
2023/03/06 07:43:22;;;;;;;14.23;7.80;;;1.10;99.90;;;;;;10344296;28;20241;-82
2023/03/06 07:48:35;;;;;;;13.97;9.13;;;1.20;99.90;;;;;;10359551;28;20267;-83
2023/03/06 07:53:37;;;;;;;21.77;13.33;;;1.30;99.90;;;;;;10364498;28;20697;-83
2023/03/06 07:58:42;;;;;;;17.23;10.23;;;1.60;99.90;;;;;;10363516;28;20686;-81
2023/03/06 08:03:46;;;;;;;15.10;9.60;;;2.30;99.90;;;;;;10366258;28;20248;-81
2023/03/06 08:08:50;;;;;;;13.97;7.70;;;3.60;99.90;;;;;;10347734;28;20686;-83
2023/03/06 08:13:53;;;;;;;13.33;6.97;;;5.60;99.90;;;;;;10363910;28;20264;-82
2023/03/06 08:18:56;;;;;;;9.43;5.97;;;6.40;98.20;;;;;;10341773;28;20673;-82
2023/03/06 08:23:59;;;;;;;7.30;4.50;;;5.70;96.30;;;;;;10348485;28;20765;-83
2023/03/06 08:29:02;;;;;;;7.10;3.73;;;4.70;98.00;;;;;;10369959;28;20266;-82
2023/03/06 08:34:08;;;;;;;5.67;4.47;;;4.20;99.90;;;;;;10352618;28;20330;-82
2023/03/06 08:39:12;;;;;;;8.83;5.17;;;4.60;99.90;;;;;;10348896;28;20276;-82
2023/03/06 08:44:15;;;;;;;6.63;4.03;;;4.30;99.90;;;;;;10373342;28;20251;-82
2023/03/06 08:49:18;;;;;;;6.13;3.87;;;5.60;99.30;;;;;;10372741;28;20245;-83
2023/03/06 08:54:20;;;;;;;6.27;4.40;;;5.70;98.90;;;;;;10371220;28;20282;-83
2023/03/06 08:59:23;;;;;;;4.40;3.47;;;5.70;97.10;;;;;;10353918;28;20307;-83
2023/03/06 09:04:29;;;;;;;6.40;4.47;;;4.90;98.00;;;;;;10352643;28;20245;-83
2023/03/06 09:09:32;;;;;;;7.03;4.40;;;5.60;99.20;;;;;;10353636;28;20296;-83
2023/03/06 09:14:34;;;;;;;9.90;5.33;;;5.10;96.50;;;;;;10371197;28;20340;-83
2023/03/06 09:19:37;;;;;;;7.77;5.53;;;5.10;99.90;;;;;;10371074;28;20292;-83
2023/03/06 09:24:40;;;;;;;9.53;6.57;;;5.40;99.90;;;;;;10339755;28;20265;-83
2023/03/06 09:29:42;;;;;;;10.17;6.67;;;4.70;98.20;;;;;;10369563;28;20270;-83
2023/03/06 09:34:45;;;;;;;10.57;7.57;;;5.20;99.90;;;;;;10370394;28;20257;-83
2023/03/06 09:39:48;;;;;;;11.00;7.57;;;5.40;97.00;;;;;;10369201;28;20307;-83
2023/03/06 09:45:00;;;;;;;10.33;6.77;;;4.40;99.70;;;;;;10369568;28;20245;-83
2023/03/06 09:50:07;;;;;;;12.57;8.17;;;4.60;99.90;;;;;;10351625;28;20249;-82
2023/03/06 09:55:29;;;;;;;15.07;9.47;;;4.20;99.90;;;;;;10369856;28;20694;-83
2023/03/06 10:00:51;;;;;;;12.27;7.90;;;4.60;99.90;;;;;;10312364;28;20243;-83
2023/03/06 10:06:15;;;;;;;16.90;11.17;;;4.90;99.90;;;;;;10349666;28;20265;-83
2023/03/06 10:11:23;;;;;;;12.07;7.60;;;4.90;99.90;;;;;;10369099;28;20299;-84
2023/03/06 10:16:28;;;;;;;22.90;13.03;;;4.40;99.90;;;;;;10350925;28;20330;-84
2023/03/06 10:21:41;;;;;;;9.70;7.87;;;5.30;99.90;;;;;;10367891;28;20757;-83
2023/03/06 10:27:20;;;;;;;10.20;6.70;;;5.50;99.90;;;;;;10331385;28;20235;-82
2023/03/06 10:32:41;;;;;;;13.00;8.03;;;6.00;99.90;;;;;;10368211;28;20249;-83
2023/03/06 10:37:57;;;;;;;13.20;7.67;;;6.00;97.80;;;;;;10365943;28;20256;-83
2023/03/06 10:42:59;;;;;;;14.03;8.00;;;6.60;97.80;;;;;;10348509;28;20229;-84
2023/03/06 10:48:18;;;;;;;13.53;9.00;;;6.00;96.20;;;;;;10366106;28;20295;-84
2023/03/06 10:53:31;;;;;;;13.00;8.73;;;6.00;97.40;;;;;;10367043;28;20802;-83
2023/03/06 10:58:34;;;;;;;11.23;7.80;;;6.10;97.70;;;;;;10367351;28;20289;-84
2023/03/06 11:03:37;;;;;;;17.97;10.93;;;6.00;99.90;;;;;;10363933;28;20244;-84
2023/03/06 11:08:42;;;;;;;19.37;11.80;;;6.40;99.10;;;;;;10366974;28;20647;-85
2023/03/06 11:13:56;;;;;;;21.33;13.43;;;6.40;96.80;;;;;;10366407;28;20253;-86
2023/03/06 11:19:16;;;;;;;20.40;13.80;;;6.60;96.60;;;;;;10378598;28;20814;-85
2023/03/06 11:24:20;;;;;;;25.20;16.70;;;6.80;96.60;;;;;;10406821;28;20239;-85
2023/03/06 11:29:58;;;;;;;35.90;21.47;;;6.60;96.40;;;;;;10367547;28;20303;-86
2023/03/06 11:35:05;;;;;;;30.33;18.80;;;6.40;96.30;;;;;;10197482;29;20377;-86
2023/03/06 11:40:10;;;;;;;28.93;16.17;;;6.40;99.50;;;;;;10200293;29;20300;-85
2023/03/06 11:45:36;;;;;;;30.83;19.77;;;6.70;98.60;;;;;;10198692;29;20316;-86
2023/03/06 11:50:52;;;;;;;11.87;8.80;;;6.50;95.50;;;;;;10200136;29;20276;-86
2023/03/06 11:56:24;;;;;;;12.63;7.73;;;6.80;99.90;;;;;;10199971;29;20327;-85
2023/03/06 12:01:35;;;;;;;14.57;9.40;;;7.30;99.20;;;;;;10199442;29;20794;-85
2023/03/06 12:07:13;;;;;;;8.33;6.33;;;8.10;94.50;;;;;;10200363;29;20257;-85
2023/03/06 12:12:40;;;;;;;7.23;4.30;;;8.80;98.20;;;;;;10332176;28;20713;-85
2023/03/06 12:18:02;;;;;;;13.50;7.80;;;10.00;93.10;;;;;;10362591;28;20265;-85
2023/03/06 12:23:45;;;;;;;12.10;6.90;;;9.60;90.20;;;;;;10347586;28;20239;-84
2023/03/06 12:28:50;;;;;;;14.80;9.57;;;9.90;90.10;;;;;;10359112;28;20264;-85
2023/03/06 12:34:03;;;;;;;10.17;7.70;;;10.80;71.50;;;;;;10347434;28;20299;-85
2023/03/06 12:39:47;;;;;;;11.83;8.23;;;10.00;72.70;;;;;;10347326;28;20264;-84
2023/03/06 12:45:21;;;;;;;11.93;8.33;;;9.70;69.30;;;;;;10200367;29;20298;-85
2023/03/06 12:50:29;;;;;;;11.17;7.57;;;8.80;76.60;;;;;;10200346;29;20782;-85
2023/03/06 12:55:42;;;;;;;12.20;7.60;;;8.80;77.30;;;;;;10199959;29;20799;-85
2023/03/06 13:00:57;;;;;;;11.50;6.67;;;9.40;78.20;;;;;;10200329;29;20696;-85
2023/03/06 13:06:30;;;;;;;10.20;6.50;;;9.20;79.20;;;;;;10199415;29;20242;-84
2023/03/06 13:12:02;;;;;;;13.70;8.27;;;9.90;80.20;;;;;;10199899;29;20236;-84
2023/03/06 13:17:19;;;;;;;10.10;7.23;;;8.80;70.20;;;;;;10205921;29;20793;-85
2023/03/06 13:22:27;;;;;;;11.57;8.17;;;7.90;79.50;;;;;;10357752;28;20303;-84
2023/03/06 13:27:47;;;;;;;9.57;6.77;;;7.40;84.00;;;;;;10339732;28;20273;-85
2023/03/06 13:32:51;;;;;;;9.17;6.63;;;7.40;91.90;;;;;;10373288;28;20264;-85
2023/03/06 13:37:55;;;;;;;9.40;7.03;;;7.40;90.50;;;;;;10370175;28;20288;-87
2023/03/06 13:43:06;;;;;;;8.43;6.07;;;8.30;84.90;;;;;;10371320;28;20278;-86
2023/03/06 13:48:34;;;;;;;8.17;5.90;;;7.10;98.40;;;;;;10354872;28;20267;-86
2023/03/06 13:54:26;;;;;;;6.03;4.23;;;7.80;92.70;;;;;;10369504;28;20249;-86
2023/03/06 13:59:56;;;;;;;8.70;6.27;;;8.40;97.20;;;;;;10330601;28;20887;-86
2023/03/06 14:05:15;;;;;;;5.43;4.83;;;8.20;93.70;;;;;;10329430;28;20886;-86
2023/03/06 14:10:20;;;;;;;10.10;5.93;;;7.50;99.90;;;;;;10359019;28;20244;-86
2023/03/06 14:15:27;;;;;;;8.93;7.07;;;8.00;99.90;;;;;;10368376;28;20282;-86
2023/03/06 14:20:52;;;;;;;7.73;6.03;;;7.50;94.10;;;;;;10334521;28;20635;-85
2023/03/06 14:26:01;;;;;;;8.10;6.13;;;7.50;99.90;;;;;;10366699;28;20244;-86
2023/03/06 14:31:05;;;;;;;10.67;7.17;;;6.80;99.90;;;;;;10367145;28;20277;-86
2023/03/06 14:36:15;;;;;;;11.07;9.53;;;6.40;99.90;;;;;;10367619;28;20255;-86
2023/03/06 14:41:29;;;;;;;9.63;6.53;;;4.50;97.70;;;;;;10367709;28;20281;-86
2023/03/06 14:46:32;;;;;;;8.30;5.27;;;4.80;99.90;;;;;;10348361;28;20236;-86
2023/03/06 14:51:59;;;;;;;9.77;5.47;;;6.00;99.90;;;;;;10363003;28;20631;-86
2023/03/06 14:57:11;;;;;;;21.13;12.17;;;6.30;99.90;;;;;;10350515;28;20256;-86
2023/03/06 15:02:22;;;;;;;3.47;2.33;;;5.90;99.90;;;;;;10367147;28;20256;-86
2023/03/06 15:07:29;;;;;;;16.80;11.00;;;6.90;99.90;;;;;;10000983;28;9999999;-87
2023/03/06 15:12:33;;;;;;;24.07;13.33;;;7.90;99.90;;;;;;10329258;28;20245;-86
2023/03/06 15:17:40;;;;;;;26.17;19.17;;;6.90;99.90;;;;;;10327994;28;20717;-86
2023/03/06 15:22:43;;;;;;;26.67;15.90;;;6.10;99.00;;;;;;10364314;28;20657;-86
2023/03/06 15:27:54;;;;;;;43.73;21.97;;;5.70;99.90;;;;;;10364544;28;20281;-86
2023/03/06 15:33:17;;;;;;;18.13;10.03;;;5.10;99.90;;;;;;10345932;28;20254;-86
2023/03/06 15:38:39;;;;;;;11.63;8.33;;;5.30;99.90;;;;;;10345796;28;20333;-86
2023/03/06 15:43:42;;;;;;;11.60;8.10;;;6.30;99.90;;;;;;10340972;28;20715;-86
2023/03/06 15:49:01;;;;;;;10.27;7.60;;;6.50;99.90;;;;;;10361043;28;20264;-86
2023/03/06 15:54:04;;;;;;;11.50;8.13;;;5.80;99.90;;;;;;10341634;28;20679;-86
2023/03/06 15:59:26;;;;;;;11.57;8.77;;;5.80;99.90;;;;;;10345329;28;20286;-86
2023/03/06 16:04:29;;;;;;;13.63;9.30;;;4.70;99.90;;;;;;10356715;28;20266;-86
2023/03/06 16:09:31;;;;;;;12.77;8.97;;;4.30;99.90;;;;;;10379513;28;20277;-86
2023/03/06 16:14:34;;;;;;;15.87;11.07;;;4.10;99.90;;;;;;10343583;28;20249;-86
2023/03/06 16:19:37;;;;;;;12.97;9.60;;;3.90;99.90;;;;;;10363898;28;20264;-86
2023/03/06 16:24:40;;;;;;;13.73;10.57;;;3.40;99.90;;;;;;10348678;28;20260;-86
2023/03/06 16:29:43;;;;;;;14.20;9.73;;;2.80;99.90;;;;;;10323256;28;20293;-86
2023/03/06 16:34:45;;;;;;;12.03;9.33;;;2.30;99.90;;;;;;10296326;28;20238;-86
2023/03/06 16:39:48;;;;;;;13.43;10.57;;;1.80;99.90;;;;;;10245645;28;20393;-86
2023/03/06 16:44:51;;;;;;;34.37;13.23;;;1.70;99.90;;;;;;10278062;28;20923;-86
2023/03/06 16:49:56;;;;;;;20.57;14.30;;;0.90;99.90;;;;;;10288992;28;20772;-86
2023/03/06 16:54:59;;;;;;;23.03;14.93;;;0.10;99.90;;;;;;10293512;28;20247;-86
2023/03/06 17:00:02;;;;;;;39.57;22.63;;;-0.40;99.90;;;;;;10332333;28;20642;-85
2023/03/06 17:05:07;;;;;;;40.70;25.00;;;;;;;;;;10292055;28;20273;-85
2023/03/06 17:10:16;;;;;;;51.97;27.80;;;-0.80;99.90;;;;;;10290127;28;20238;-86
2023/03/06 17:15:19;;;;;;;53.88;29.67;;;-1.20;99.90;;;;;;9945118;28;9999683;-85
2023/03/06 17:20:22;;;;;;;43.70;25.83;;;-1.40;99.90;;;;;;10288299;28;20273;-85
2023/03/06 17:25:25;;;;;;;43.23;26.83;;;-1.50;99.90;;;;;;10290018;28;20633;-85
2023/03/06 17:30:28;;;;;;;45.07;28.20;;;-1.50;99.90;;;;;;10329388;28;20706;-86
2023/03/06 17:35:33;;;;;;;46.97;28.40;;;;;;;;;;10304315;28;20317;-85
2023/03/06 17:40:36;;;;;;;43.50;26.80;;;-1.80;99.90;;;;;;10344346;28;20263;-84
2023/03/06 17:45:39;;;;;;;43.73;28.03;;;-1.90;99.90;;;;;;10328670;28;20244;-85
2023/03/06 17:50:44;;;;;;;49.37;28.33;;;-2.10;99.90;;;;;;10303217;28;20311;-85
2023/03/06 17:55:47;;;;;;;43.93;27.67;;;-2.10;99.90;;;;;;10329411;28;20283;-86
2023/03/06 18:00:50;;;;;;;60.50;34.80;;;-2.30;99.90;;;;;;10327683;28;20240;-86
2023/03/06 18:06:03;;;;;;;62.57;34.30;;;-2.40;99.90;;;;;;10329810;28;20248;-86
2023/03/06 18:11:08;;;;;;;57.43;29.13;;;-2.50;99.90;;;;;;10329183;28;20685;-86
2023/03/06 18:16:17;;;;;;;14.30;7.27;;;-2.70;99.90;;;;;;10328887;28;20295;-86
2023/03/06 18:21:20;;;;;;;40.70;21.67;;;-2.60;99.90;;;;;;10328757;28;20619;-86
2023/03/06 18:26:25;;;;;;;59.03;28.77;;;-1.90;99.90;;;;;;10330276;28;20271;-85
2023/03/06 18:31:37;;;;;;;59.83;31.03;;;-1.40;99.90;;;;;;10368236;28;20325;-85
2023/03/06 18:36:45;;;;;;;58.53;31.50;;;-1.10;99.90;;;;;;10367589;28;20353;-85
2023/03/06 18:41:48;;;;;;;60.40;33.27;;;-0.80;99.90;;;;;;10349982;28;20294;-85
2023/03/06 18:46:51;;;;;;;35.40;20.37;;;-0.40;99.90;;;;;;10351137;28;20275;-85
2023/03/06 18:51:53;;;;;;;45.57;27.23;;;-0.50;99.90;;;;;;10359587;28;20236;-85
2023/03/06 18:56:56;;;;;;;38.93;23.40;;;-1.40;99.90;;;;;;10361001;28;20264;-85
2023/03/06 19:01:59;;;;;;;37.17;21.03;;;-1.70;99.90;;;;;;10333965;28;20693;-84
2023/03/06 19:07:01;;;;;;;56.10;24.70;;;-1.30;99.90;;;;;;10364275;28;20262;-84
2023/03/06 19:12:05;;;;;;;35.37;19.37;;;-0.80;99.90;;;;;;10369068;28;20247;-84
2023/03/06 19:17:07;;;;;;;42.23;22.77;;;-0.40;99.90;;;;;;10368390;28;20251;-85
2023/03/06 19:22:10;;;;;;;36.73;21.57;;;0.00;99.90;;;;;;10348353;28;20235;-84
2023/03/06 19:27:12;;;;;;;55.93;28.43;;;-0.30;99.90;;;;;;10364705;28;20256;-85
2023/03/06 19:32:15;;;;;;;136.27;47.70;;;-0.10;99.90;;;;;;10380039;28;20259;-84
2023/03/06 19:37:18;;;;;;;51.83;27.60;;;-0.10;99.90;;;;;;10364714;28;20799;-84
2023/03/06 19:42:20;;;;;;;40.83;23.17;;;-1.20;99.90;;;;;;10364498;28;20255;-84
2023/03/06 19:47:23;;;;;;;75.03;28.47;;;-1.50;99.90;;;;;;10342857;28;20728;-83
2023/03/06 19:52:26;;;;;;;44.27;24.63;;;-1.70;99.90;;;;;;10365202;28;20244;-83
2023/03/06 19:57:28;;;;;;;51.63;29.17;;;-1.20;99.90;;;;;;10347903;28;20799;-83
2023/03/06 20:02:31;;;;;;;51.07;29.17;;;-0.50;99.90;;;;;;10366150;28;20294;-82
2023/03/06 20:07:34;;;;;;;49.03;28.10;;;-0.50;99.90;;;;;;10366539;28;20769;-82
2023/03/06 20:12:37;;;;;;;51.60;25.80;;;-0.70;99.90;;;;;;10366171;28;20245;-82
2023/03/06 20:17:40;;;;;;;44.37;25.23;;;-0.70;99.90;;;;;;10365183;28;20263;-82
2023/03/06 20:22:42;;;;;;;45.47;26.13;;;-0.90;99.90;;;;;;10365910;28;20241;-82
2023/03/06 20:27:45;;;;;;;50.57;27.30;;;-1.10;99.90;;;;;;10371585;28;20653;-82
2023/03/06 20:32:48;;;;;;;57.40;30.80;;;-1.80;99.90;;;;;;10373323;28;20295;-83
2023/03/06 20:37:50;;;;;;;63.37;33.63;;;-2.00;99.90;;;;;;10377338;28;20318;-82
2023/03/06 20:42:53;;;;;;;52.53;29.40;;;-2.20;99.90;;;;;;10374004;28;20245;-83
2023/03/06 20:47:56;;;;;;;47.83;25.20;;;-2.50;99.90;;;;;;10375900;28;20244;-82
2023/03/06 20:52:58;;;;;;;59.77;32.50;;;-2.40;99.90;;;;;;10373896;28;20237;-82
2023/03/06 20:58:01;;;;;;;63.37;34.33;;;-2.30;99.90;;;;;;10377355;28;20705;-82
2023/03/06 21:03:03;;;;;;;79.40;41.10;;;-2.50;99.90;;;;;;10375863;28;20763;-82
2023/03/06 21:08:06;;;;;;;76.07;40.50;;;-2.70;99.90;;;;;;10378468;28;20271;-82
2023/03/06 21:13:08;;;;;;;98.40;48.97;;;-2.80;99.90;;;;;;10361137;28;20235;-82
2023/03/06 21:18:11;;;;;;;102.73;52.10;;;-2.80;99.90;;;;;;10379034;28;20800;-82
2023/03/06 21:23:14;;;;;;;115.90;57.27;;;-2.90;99.90;;;;;;10359460;28;20283;-82
2023/03/06 21:28:18;;;;;;;145.23;72.20;;;-3.00;99.90;;;;;;10360129;28;20322;-82
2023/03/06 21:33:20;;;;;;;155.70;77.17;;;-2.70;99.90;;;;;;10378189;28;20245;-82
2023/03/06 21:38:23;;;;;;;154.13;78.37;;;-2.50;99.90;;;;;;10370823;28;20265;-82
2023/03/06 21:43:25;;;;;;;144.23;71.90;;;-2.20;99.90;;;;;;10372268;28;20230;-82
2023/03/06 21:48:28;;;;;;;137.67;70.57;;;-2.60;99.90;;;;;;10371787;28;20248;-82
2023/03/06 21:53:31;;;;;;;160.63;79.30;;;-3.00;99.90;;;;;;10353830;28;20296;-82
2023/03/06 21:58:33;;;;;;;159.30;77.10;;;-3.00;99.90;;;;;;10351991;28;20264;-82
2023/03/06 22:03:36;;;;;;;163.10;83.97;;;-3.00;99.90;;;;;;10368573;28;20229;-83
2023/03/06 22:08:39;;;;;;;190.10;95.27;;;-3.10;99.90;;;;;;10368541;28;20303;-83
2023/03/06 22:13:43;;;;;;;183.93;94.40;;;-2.90;99.90;;;;;;10367744;28;20242;-83
2023/03/06 22:18:47;;;;;;;206.10;105.40;;;-2.70;99.90;;;;;;10368535;28;20704;-83
2023/03/06 22:23:58;;;;;;;196.30;99.50;;;-2.30;99.90;;;;;;10370355;28;20239;-83
2023/03/06 22:29:00;;;;;;;179.00;89.93;;;-2.10;99.90;;;;;;10352606;28;20266;-83
2023/03/06 22:34:04;;;;;;;173.47;89.07;;;-2.40;99.90;;;;;;10368526;28;20292;-83
2023/03/06 22:39:11;;;;;;;192.03;100.17;;;-2.60;99.90;;;;;;10369180;28;20344;-83
2023/03/06 22:44:18;;;;;;;196.87;98.73;;;-2.20;99.90;;;;;;10369586;28;20237;-83
2023/03/06 22:49:20;;;;;;;192.47;94.80;;;-2.50;99.90;;;;;;10369509;28;20269;-83
2023/03/06 22:54:23;;;;;;;155.83;82.40;;;-2.50;99.90;;;;;;10367330;28;20247;-83
2023/03/06 22:59:26;;;;;;;134.07;64.43;;;-2.50;99.90;;;;;;10369569;28;20271;-83
2023/03/06 23:04:28;;;;;;;115.23;53.73;;;-2.20;99.90;;;;;;10351585;28;20205;-83
2023/03/06 23:09:31;;;;;;;102.17;45.43;;;-2.10;99.90;;;;;;10351442;28;20807;-83
2023/03/06 23:14:53;;;;;;;91.77;44.03;;;-1.70;99.90;;;;;;10361593;28;20254;-82
2023/03/06 23:20:14;;;;;;;80.57;37.33;;;-1.30;99.90;;;;;;10370295;28;20326;-83
2023/03/06 23:25:35;;;;;;;83.97;37.80;;;-0.80;99.90;;;;;;10354458;28;20242;-83
2023/03/06 23:30:39;;;;;;;67.60;36.13;;;-0.70;99.90;;;;;;10334387;28;20278;-83
2023/03/06 23:35:43;;;;;;;83.17;35.67;;;-0.60;99.90;;;;;;10350862;28;20212;-83
2023/03/06 23:40:46;;;;;;;74.90;37.87;;;-0.40;99.90;;;;;;10367521;28;20258;-83
2023/03/06 23:45:53;;;;;;;75.47;37.53;;;0.00;99.90;;;;;;10367506;28;20479;-83
2023/03/06 23:50:55;;;;;;;78.83;36.37;;;-0.20;99.90;;;;;;10367745;28;20242;-83
2023/03/06 23:55:58;;;;;;;80.97;34.73;;;-0.30;99.90;;;;;;10349930;28;20711;-83
